Time;durP1;ratioP1;P1;durP2;ratioP2;P2;SDS_P1;SDS_P2;PMS_P1;PMS_P2;Temp;Humidity;BMP_temperature;BMP_pressure;BME280_temperature;BME280_humidity;BME280_pressure;Samples;Min_cycle;Max_cycle;Signal;HPM_P1;HPM_P2
2021/03/05 00:00:02;;;;;;;8.00;1.80;;;;;;;-2.89;88.02;102364.00;5044185;28;20059;-73
2021/03/05 00:02:39;;;;;;;4.15;1.80;;;;;;;-2.84;87.97;102375.91;5053319;28;20040;-71
2021/03/05 00:05:07;;;;;;;9.35;2.40;;;;;;;-2.85;87.72;102381.88;5051583;28;20041;-73
2021/03/05 00:07:33;;;;;;;5.28;1.58;;;;;;;-2.94;88.32;102384.56;5068342;28;20031;-73
2021/03/05 00:09:59;;;;;;;8.98;2.67;;;;;;;-2.96;88.42;102382.03;5068574;28;20040;-72
2021/03/05 00:12:25;;;;;;;7.80;2.03;;;;;;;-2.91;89.09;102393.97;5068128;28;20032;-72
2021/03/05 00:14:50;;;;;;;8.52;1.40;;;;;;;-2.98;88.53;102394.03;5064545;28;20486;-72
2021/03/05 00:17:16;;;;;;;13.38;2.08;;;;;;;-2.85;88.92;102392.16;5080106;28;20572;-72
2021/03/05 00:19:41;;;;;;;11.32;2.00;;;;;;;-2.77;89.12;102399.75;5056039;28;20037;-72
2021/03/05 00:22:08;;;;;;;10.65;2.55;;;;;;;-2.78;88.73;102398.91;5068987;28;20036;-72
2021/03/05 00:24:34;;;;;;;8.02;1.70;;;;;;;-2.81;88.31;102409.22;5061681;28;20041;-72
2021/03/05 00:27:01;;;;;;;8.32;1.60;;;;;;;-2.87;89.15;102408.47;5058439;28;20124;-72
2021/03/05 00:29:27;;;;;;;9.15;2.28;;;;;;;-2.82;89.39;102414.41;5063948;28;20482;-72
2021/03/05 00:31:53;;;;;;;10.52;1.65;;;;;;;-2.85;89.58;102417.00;5065230;28;20028;-71
2021/03/05 00:34:19;;;;;;;10.55;1.73;;;;;;;-2.97;89.78;102415.44;5069011;28;20054;-71
2021/03/05 00:36:44;;;;;;;11.20;2.00;;;;;;;-2.94;89.77;102416.25;5030024;28;20040;-71
2021/03/05 00:39:10;;;;;;;12.68;2.15;;;;;;;-2.91;89.96;102422.22;5057793;28;20103;-72
2021/03/05 00:41:36;;;;;;;7.05;1.60;;;;;;;-2.97;89.86;102420.56;5053874;28;20140;-71
2021/03/05 00:44:05;;;;;;;7.72;1.52;;;;;;;-3.00;89.93;102421.44;5031397;28;20037;-71
2021/03/05 00:46:32;;;;;;;9.20;1.65;;;;;;;-3.02;90.11;102425.75;5058056;28;20040;-72
2021/03/05 00:48:58;;;;;;;7.30;1.92;;;;;;;-3.02;90.09;102422.34;5055590;28;20044;-71
2021/03/05 00:51:24;;;;;;;9.25;1.80;;;;;;;-2.95;90.36;102426.53;5063791;28;20101;-71
2021/03/05 00:53:51;;;;;;;4.30;1.40;;;;;;;-3.02;89.87;102425.75;5063446;28;20074;-72
2021/03/05 00:56:18;;;;;;;3.17;1.20;;;;;;;-3.07;90.47;102426.66;5047247;28;20040;-72
2021/03/05 00:58:44;;;;;;;12.30;2.28;;;;;;;-3.08;90.60;102432.69;5049111;28;20036;-75
2021/03/05 01:01:14;;;;;;;7.22;1.95;;;;;;;-3.03;89.94;102436.03;5046618;28;20029;-72
2021/03/05 01:03:40;;;;;;;5.13;1.35;;;;;;;-2.98;89.75;102441.97;5047358;28;20394;-72
2021/03/05 01:06:06;;;;;;;8.30;1.75;;;;;;;-3.00;89.68;102447.13;5050244;28;20378;-72
2021/03/05 01:08:32;;;;;;;7.32;1.50;;;;;;;-2.88;89.93;102445.28;5063611;28;20064;-72
2021/03/05 01:10:59;;;;;;;9.57;1.95;;;;;;;-2.92;89.14;102447.03;5066037;28;20135;-72
2021/03/05 01:13:25;;;;;;;16.88;1.50;;;;;;;-2.91;89.54;102450.47;5045832;28;20132;-72
2021/03/05 01:15:51;;;;;;;7.22;1.10;;;;;;;-2.91;88.70;102455.59;5048683;28;20462;-72
2021/03/05 01:18:16;;;;;;;8.68;1.40;;;;;;;-2.86;89.13;102456.38;5014821;28;20040;-72
2021/03/05 01:20:43;;;;;;;8.70;1.95;;;;;;;-2.81;89.04;102454.59;5047183;28;20033;-72
2021/03/05 01:23:08;;;;;;;12.20;1.67;;;;;;;-2.75;89.32;102457.97;5048876;28;20037;-72
2021/03/05 01:25:34;;;;;;;11.15;1.50;;;;;;;-2.64;89.08;102456.97;5066680;28;20096;-71
2021/03/05 01:28:01;;;;;;;12.60;1.38;;;;;;;-2.67;88.25;102455.31;5066011;28;20036;-72
2021/03/05 01:30:27;;;;;;;13.82;1.50;;;;;;;-2.72;88.81;102464.78;5049028;28;20044;-71
2021/03/05 01:32:52;;;;;;;5.85;1.33;;;;;;;-2.73;88.76;102463.09;5064748;28;20036;-71
2021/03/05 01:35:25;;;;;;;7.97;1.13;;;;;;;-2.65;89.00;102468.97;5068685;28;20028;-72
2021/03/05 01:37:51;;;;;;;8.88;1.52;;;;;;;-2.68;88.79;102460.47;5066138;28;20044;-71
2021/03/05 01:40:34;;;;;;;5.45;1.23;;;;;;;-2.62;88.92;102462.94;5067182;28;20034;-72
2021/03/05 01:43:00;;;;;;;8.68;1.77;;;;;;;-2.77;88.79;102466.53;5073296;28;20450;-71
2021/03/05 01:45:29;;;;;;;13.32;1.52;;;;;;;-2.81;88.81;102468.28;5066025;28;20051;-72
2021/03/05 01:47:58;;;;;;;6.10;1.38;;;;;;;-2.75;89.02;102469.94;5062096;28;20043;-71
2021/03/05 01:50:27;;;;;;;10.18;1.15;;;;;;;-2.62;88.86;102468.94;5065191;28;20130;-71
2021/03/05 01:53:01;;;;;;;9.15;1.52;;;;;;;-2.51;88.28;102465.38;5064507;28;20036;-72
2021/03/05 01:55:27;;;;;;;9.88;1.25;;;;;;;-2.57;88.00;102468.88;5071560;28;20047;-71
2021/03/05 01:57:54;;;;;;;12.73;1.75;;;;;;;-2.61;88.22;102467.22;5054184;28;20040;-72
2021/03/05 02:01:00;;;;;;;16.67;1.60;;;;;;;-2.75;88.76;102468.25;5069948;28;20044;-72
2021/03/05 02:03:30;;;;;;;9.63;1.75;;;;;;;-2.68;88.89;102474.13;5051442;28;20060;-72
2021/03/05 02:05:56;;;;;;;8.63;1.85;;;;;;;-2.66;88.30;102476.69;5068456;28;20036;-71
2021/03/05 02:08:27;;;;;;;14.20;1.83;;;;;;;-2.74;88.85;102474.22;5070246;28;20029;-71
2021/03/05 02:10:53;;;;;;;8.88;1.48;;;;;;;-2.66;88.88;102469.81;5071626;28;20029;-71
2021/03/05 02:13:19;;;;;;;9.95;1.70;;;;;;;-2.77;88.50;102477.69;5069895;28;20039;-72
2021/03/05 02:15:45;;;;;;;8.25;1.75;;;;;;;-2.83;89.00;102469.19;5042623;28;20037;-71
2021/03/05 02:18:45;;;;;;;8.18;1.48;;;;;;;-2.86;89.27;102471.78;5033441;28;20037;-71
2021/03/05 02:21:48;;;;;;;9.82;1.80;;;;;;;-2.89;89.15;102480.38;5034806;28;20037;-72
2021/03/05 02:24:42;;;;;;;11.77;1.55;;;;;;;-2.86;89.28;102487.19;5049975;28;20120;-71
2021/03/05 02:27:25;;;;;;;10.38;1.60;;;;;;;-2.91;89.64;102491.56;5051979;28;20466;-71
2021/03/05 02:30:15;;;;;;;9.13;1.67;;;;;;;-2.96;89.14;102492.47;5072023;28;20105;-72
2021/03/05 02:32:55;;;;;;;7.53;1.70;;;;;;;-2.98;89.34;102495.91;5073040;28;20036;-73
2021/03/05 02:35:23;;;;;;;10.98;1.60;;;;;;;-3.09;89.31;102503.69;5067300;28;20036;-72
2021/03/05 02:37:52;;;;;;;8.63;1.70;;;;;;;-3.04;89.58;102508.81;5073838;28;20161;-71
2021/03/05 02:40:25;;;;;;;6.15;1.38;;;;;;;-3.03;89.56;102510.50;5069529;28;20040;-72
2021/03/05 02:42:58;;;;;;;6.60;1.65;;;;;;;-3.02;89.80;102509.63;5071464;28;20178;-71
2021/03/05 02:45:27;;;;;;;10.82;1.55;;;;;;;-3.10;90.14;102512.28;5051606;28;20040;-72
2021/03/05 02:48:00;;;;;;;7.75;1.58;;;;;;;-3.11;89.88;102500.28;5058535;28;20052;-71
2021/03/05 02:50:27;;;;;;;;;;;;;;;-3.10;90.14;102507.16;5057163;28;20055;-71
2021/03/05 02:52:56;;;;;;;13.00;1.70;;;;;;;-3.02;89.39;102510.47;5049944;28;20282;-71
2021/03/05 02:55:23;;;;;;;8.70;1.50;;;;;;;-3.08;90.25;102502.00;5070749;28;20428;-73
2021/03/05 02:57:55;;;;;;;7.00;1.67;;;;;;;-3.03;89.67;102511.34;5069116;28;20040;-72
2021/03/05 03:00:22;;;;;;;7.35;1.63;;;;;;;-2.90;89.80;102506.06;5052033;28;20036;-72
2021/03/05 03:02:48;;;;;;;7.85;1.65;;;;;;;-3.00;89.53;102505.34;5068701;28;20385;-71
2021/03/05 03:05:14;;;;;;;11.13;1.92;;;;;;;-3.04;89.91;102512.22;5070526;28;20040;-71
2021/03/05 03:07:41;;;;;;;5.53;1.90;;;;;;;-3.10;89.75;102514.84;5063993;28;20044;-71
2021/03/05 03:10:10;;;;;;;8.90;1.65;;;;;;;-3.14;90.32;102515.75;5066351;28;20051;-71
2021/03/05 03:12:37;;;;;;;4.78;1.23;;;;;;;-3.15;90.55;102519.16;5070942;28;20043;-71
2021/03/05 03:15:08;;;;;;;15.20;1.95;;;;;;;-3.29;90.48;102523.59;5064819;28;20033;-71
2021/03/05 03:17:36;;;;;;;9.15;1.50;;;;;;;-3.29;90.52;102514.19;5050608;28;20909;-71
2021/03/05 03:20:03;;;;;;;18.45;2.15;;;;;;;-3.31;90.62;102521.03;5049290;28;20029;-72
2021/03/05 03:22:30;;;;;;;10.32;2.30;;;;;;;-3.37;90.38;102519.38;5048979;28;20041;-72
2021/03/05 03:24:56;;;;;;;8.70;1.73;;;;;;;-3.33;91.60;102521.06;5050851;28;20040;-73
2021/03/05 03:27:22;;;;;;;5.43;1.85;;;;;;;-3.35;91.07;102530.47;5069788;28;20071;-73
2021/03/05 03:29:48;;;;;;;10.65;1.85;;;;;;;-3.35;90.88;102520.22;5077436;28;20071;-72
2021/03/05 03:32:13;;;;;;;9.43;1.73;;;;;;;-3.41;91.00;102524.53;5067720;28;20516;-72
2021/03/05 03:34:41;;;;;;;11.50;1.63;;;;;;;-3.41;90.78;102527.97;5044925;28;20116;-72
2021/03/05 03:37:08;;;;;;;9.00;1.48;;;;;;;-3.43;90.96;102529.66;5050761;28;20072;-72
2021/03/05 03:39:34;;;;;;;9.27;1.80;;;;;;;-3.41;90.43;102530.53;5062464;28;20068;-72
2021/03/05 03:42:00;;;;;;;8.65;1.52;;;;;;;-3.45;90.64;102533.13;5068436;28;20393;-71
2021/03/05 03:44:26;;;;;;;8.88;1.33;;;;;;;-3.53;90.55;102538.31;5056444;28;20051;-71
2021/03/05 03:46:52;;;;;;;9.45;1.63;;;;;;;-3.42;91.30;102539.09;5052198;28;20053;-71
2021/03/05 03:49:46;;;;;;;4.68;1.27;;;;;;;-3.41;90.89;102545.06;5067846;28;20157;-73
2021/03/05 03:52:24;;;;;;;9.32;1.45;;;;;;;-3.42;91.02;102551.06;5070128;28;20044;-71
2021/03/05 03:54:51;;;;;;;9.10;1.55;;;;;;;-3.52;91.30;102550.31;5069485;28;20456;-72
2021/03/05 03:57:19;;;;;;;4.15;1.27;;;;;;;-3.58;91.33;102552.88;5070500;28;20544;-71
2021/03/05 03:59:46;;;;;;;6.80;1.92;;;;;;;-3.61;91.96;102561.47;5048775;28;20025;-73
2021/03/05 04:02:13;;;;;;;12.05;1.80;;;;;;;-3.60;91.98;102558.06;5047626;28;20509;-73
2021/03/05 04:04:39;;;;;;;16.60;2.45;;;;;;;-3.56;92.43;102563.97;5048218;28;20044;-72
2021/03/05 04:07:07;;;;;;;10.45;1.90;;;;;;;-3.48;92.13;102559.66;5040665;28;20036;-72
2021/03/05 04:09:36;;;;;;;9.13;1.60;;;;;;;-3.54;91.83;102563.13;5064181;28;20039;-71
2021/03/05 04:12:03;;;;;;;9.43;1.85;;;;;;;-3.45;91.92;102561.34;5068579;28;20101;-72
2021/03/05 04:14:30;;;;;;;9.30;1.90;;;;;;;-3.48;92.24;102569.06;5049334;28;20036;-71
2021/03/05 04:16:56;;;;;;;6.95;1.38;;;;;;;-3.40;91.57;102575.00;5048793;28;20116;-72
2021/03/05 04:19:22;;;;;;;8.93;1.42;;;;;;;-3.43;91.94;102577.59;5048603;28;20031;-71
2021/03/05 04:21:49;;;;;;;14.23;1.75;;;;;;;-3.41;91.86;102576.72;5049623;28;20111;-71
2021/03/05 04:24:16;;;;;;;13.40;1.65;;;;;;;-3.34;91.49;102575.78;5046699;28;20040;-71
2021/03/05 04:26:42;;;;;;;8.15;1.58;;;;;;;-3.38;91.12;102586.09;5049032;28;20033;-72
2021/03/05 04:29:07;;;;;;;6.60;1.40;;;;;;;-3.39;91.35;102589.53;5060066;28;20041;-74
2021/03/05 04:31:33;;;;;;;14.13;2.42;;;;;;;-3.46;91.50;102581.03;5083383;28;20089;-71
2021/03/05 04:33:59;;;;;;;9.45;1.90;;;;;;;-3.49;91.68;102588.75;5069160;28;20032;-72
2021/03/05 04:36:25;;;;;;;15.77;2.38;;;;;;;-3.48;92.01;102589.59;5065420;28;20044;-71
2021/03/05 04:38:50;;;;;;;10.90;1.90;;;;;;;-3.42;91.80;102592.97;5050420;28;20115;-72
2021/03/05 04:41:17;;;;;;;9.32;1.30;;;;;;;-3.47;91.59;102594.72;5066959;28;20410;-71
2021/03/05 04:43:42;;;;;;;14.32;1.83;;;;;;;-3.49;91.31;102605.84;5068327;28;20552;-71
2021/03/05 04:46:08;;;;;;;9.00;1.75;;;;;;;-3.52;92.21;102609.31;5067059;28;20040;-71
2021/03/05 04:48:33;;;;;;;9.30;1.77;;;;;;;-3.58;91.69;102605.06;5065889;28;20040;-71
2021/03/05 04:50:59;;;;;;;11.75;1.80;;;;;;;-3.53;92.06;102623.81;5056232;28;20052;-73
2021/03/05 04:53:25;;;;;;;10.43;1.75;;;;;;;-3.56;91.78;102618.72;5027300;28;20114;-72
2021/03/05 04:55:52;;;;;;;8.63;2.13;;;;;;;-3.55;92.22;102614.44;5060282;28;20118;-71
2021/03/05 04:58:18;;;;;;;10.82;2.17;;;;;;;-3.46;91.82;102616.94;5062713;28;20486;-72
2021/03/05 05:00:43;;;;;;;10.38;2.10;;;;;;;-3.46;92.35;102616.94;5067830;28;20055;-72
2021/03/05 05:03:09;;;;;;;15.70;3.03;;;;;;;-3.32;91.93;102624.53;5067920;28;20037;-71
2021/03/05 05:05:36;;;;;;;7.85;1.90;;;;;;;-3.38;91.34;102630.56;5050371;28;20452;-71
2021/03/05 05:08:04;;;;;;;11.80;1.80;;;;;;;-3.48;91.50;102639.22;5058816;28;20028;-72
2021/03/05 05:10:30;;;;;;;9.85;1.70;;;;;;;-3.58;91.70;102647.81;5066716;28;20028;-71
2021/03/05 05:12:56;;;;;;;7.85;2.03;;;;;;;-3.59;91.74;102630.72;5061794;28;20106;-71
2021/03/05 05:15:21;;;;;;;7.53;2.35;;;;;;;-3.72;91.87;102648.72;5066533;28;20513;-71
2021/03/05 05:17:47;;;;;;;8.05;2.15;;;;;;;-3.70;92.15;102650.44;5067364;28;20037;-71
2021/03/05 05:20:13;;;;;;;7.40;2.20;;;;;;;-3.66;91.63;102647.84;5066655;28;20041;-72
2021/03/05 05:22:38;;;;;;;9.80;2.05;;;;;;;-3.66;92.10;102658.09;5067568;28;20040;-72
2021/03/05 05:25:06;;;;;;;14.30;2.35;;;;;;;-3.67;92.13;102655.53;5052901;28;20064;-71
2021/03/05 05:27:31;;;;;;;12.55;2.30;;;;;;;-3.70;92.10;102651.28;5036980;28;20481;-71
2021/03/05 05:29:57;;;;;;;10.40;2.25;;;;;;;-3.74;91.89;102667.56;5065864;28;20116;-71
2021/03/05 05:32:22;;;;;;;5.78;1.98;;;;;;;-3.78;92.14;102666.72;5067336;28;20041;-71
2021/03/05 05:34:48;;;;;;;10.55;2.20;;;;;;;-3.80;92.21;102673.56;5067955;28;20055;-71
2021/03/05 05:37:13;;;;;;;10.07;1.73;;;;;;;-3.87;92.37;102673.59;5032461;28;20098;-72
2021/03/05 05:39:40;;;;;;;5.32;2.00;;;;;;;-3.95;92.54;102668.50;5042187;28;20036;-71
2021/03/05 05:42:07;;;;;;;6.93;1.88;;;;;;;-3.92;92.04;102671.03;5057768;28;20632;-72
2021/03/05 05:44:33;;;;;;;11.68;2.20;;;;;;;-3.98;92.75;102669.34;5066884;28;20028;-71
2021/03/05 05:47:00;;;;;;;7.57;1.85;;;;;;;-3.98;92.76;102684.75;5048468;28;20069;-71
2021/03/05 05:49:28;;;;;;;14.48;2.22;;;;;;;-3.94;92.78;102683.91;5062426;28;20040;-73
2021/03/05 05:51:57;;;;;;;11.35;2.83;;;;;;;-4.02;92.54;102682.22;5065178;28;20037;-73
2021/03/05 05:54:23;;;;;;;11.20;2.03;;;;;;;-4.06;92.54;102676.25;5063194;28;20029;-71
2021/03/05 05:56:51;;;;;;;11.63;2.15;;;;;;;-3.97;92.45;102675.38;5063897;28;20032;-71
2021/03/05 05:59:17;;;;;;;10.93;2.45;;;;;;;-3.96;93.00;102672.75;5068504;28;20108;-70
2021/03/05 06:01:43;;;;;;;11.15;2.90;;;;;;;-3.91;93.09;102675.31;5067783;28;20116;-70
2021/03/05 06:04:09;;;;;;;10.77;2.63;;;;;;;-3.87;92.23;102686.44;5067887;28;20094;-70
2021/03/05 06:06:38;;;;;;;10.48;2.15;;;;;;;-3.91;92.43;102685.59;5065467;28;20206;-71
2021/03/05 06:09:04;;;;;;;11.88;3.17;;;;;;;-3.86;93.06;102694.13;5062796;28;20304;-70
2021/03/05 06:11:34;;;;;;;13.90;2.58;;;;;;;-3.86;92.80;102695.81;5066612;28;20530;-70
2021/03/05 06:14:05;;;;;;;10.40;2.38;;;;;;;-3.83;92.61;102694.09;5056782;28;20468;-70
2021/03/05 06:16:31;;;;;;;12.02;3.10;;;;;;;-3.83;92.46;102696.66;5048169;28;20045;-70
2021/03/05 06:19:00;;;;;;;9.68;2.40;;;;;;;-3.79;92.51;102700.91;5048115;28;20037;-70
2021/03/05 06:21:37;;;;;;;11.65;2.78;;;;;;;-3.66;91.83;102698.31;5054910;28;20036;-70
2021/03/05 06:24:05;;;;;;;11.07;2.45;;;;;;;-3.63;91.63;102706.00;5063159;28;20043;-71
2021/03/05 06:26:46;;;;;;;11.00;2.45;;;;;;;-3.60;91.45;102708.53;5050522;28;20110;-71
2021/03/05 06:29:11;;;;;;;5.60;2.13;;;;;;;-3.58;91.65;102709.38;5062939;28;20060;-71
2021/03/05 06:31:37;;;;;;;11.02;2.80;;;;;;;-3.55;91.76;102711.94;5086388;28;20063;-71
2021/03/05 06:34:03;;;;;;;9.27;2.45;;;;;;;-3.52;91.13;102709.38;5071947;28;20036;-71
2021/03/05 06:36:30;;;;;;;7.07;2.35;;;;;;;-3.52;91.27;102712.78;5071191;28;20100;-70
2021/03/05 06:38:56;;;;;;;7.65;2.65;;;;;;;-3.39;91.26;102722.94;5071497;28;20093;-71
2021/03/05 06:41:29;;;;;;;8.40;2.40;;;;;;;-3.36;91.49;102722.94;5070540;28;20115;-72
2021/03/05 06:43:55;;;;;;;11.40;2.15;;;;;;;-3.33;90.94;102722.94;5075340;28;20461;-71
2021/03/05 06:46:40;;;;;;;4.10;2.28;;;;;;;-3.19;90.70;102723.69;5055346;28;20102;-70
2021/03/05 06:49:08;;;;;;;11.63;2.78;;;;;;;-3.15;90.45;102720.25;5054486;28;20076;-72
2021/03/05 06:51:34;;;;;;;6.00;2.60;;;;;;;-3.04;90.50;102735.59;5060043;28;20035;-73
2021/03/05 06:54:13;;;;;;;10.18;2.63;;;;;;;-2.82;89.41;102749.13;5055700;28;20041;-73
2021/03/05 06:56:41;;;;;;;5.07;1.95;;;;;;;-2.70;89.37;102739.63;5052682;28;20041;-72
2021/03/05 06:59:09;;;;;;;7.30;1.88;;;;;;;-2.60;88.87;102734.41;5058446;28;20063;-72
2021/03/05 07:01:48;;;;;;;6.03;1.95;;;;;;;-2.60;89.02;102739.56;5065631;28;20040;-71
2021/03/05 07:04:38;;;;;;;11.77;2.45;;;;;;;-2.36;87.90;102750.47;5063032;28;20036;-73
2021/03/05 07:07:08;;;;;;;8.63;2.15;;;;;;;-2.23;87.07;102746.91;5055577;28;20045;-72
2021/03/05 07:09:40;;;;;;;8.27;2.60;;;;;;;-2.16;87.31;102760.56;5060607;28;20580;-72
2021/03/05 07:12:11;;;;;;;10.20;2.35;;;;;;;-1.97;85.79;102762.09;5050770;28;20445;-72
2021/03/05 07:14:38;;;;;;;7.72;2.20;;;;;;;-1.94;86.06;102768.94;5032317;28;20037;-72
2021/03/05 07:17:06;;;;;;;9.45;2.20;;;;;;;-1.81;85.28;102767.94;5069038;28;20146;-72
2021/03/05 07:19:34;;;;;;;11.88;2.35;;;;;;;-1.65;84.54;102778.03;5068939;28;20036;-72
2021/03/05 07:22:01;;;;;;;12.15;2.58;;;;;;;-1.57;84.09;102782.22;5070231;28;20397;-72
2021/03/05 07:24:28;;;;;;;6.88;2.45;;;;;;;-1.49;83.25;102774.41;5050473;28;20072;-72
2021/03/05 07:27:02;;;;;;;6.63;2.08;;;;;;;-1.47;82.64;102782.97;5067855;28;20112;-72
2021/03/05 07:29:38;;;;;;;13.52;3.05;;;;;;;-1.37;82.76;102784.56;5069982;28;20028;-72
2021/03/05 07:32:06;;;;;;;11.93;2.90;;;;;;;-1.34;82.51;102780.22;5066710;28;20033;-72
2021/03/05 07:34:36;;;;;;;9.65;2.22;;;;;;;-1.26;82.75;102788.69;5070116;28;20040;-71
2021/03/05 07:37:05;;;;;;;15.50;2.65;;;;;;;-1.20;81.76;102786.91;5066634;28;20052;-72
2021/03/05 07:39:35;;;;;;;9.32;2.03;;;;;;;-1.10;82.12;102795.34;5059781;28;20119;-72
2021/03/05 07:42:02;;;;;;;10.15;2.75;;;;;;;-1.02;81.23;102793.53;5070508;28;20089;-72
2021/03/05 07:44:45;;;;;;;6.60;2.17;;;;;;;-0.93;81.37;102804.59;5051908;28;20044;-72
2021/03/05 07:47:15;;;;;;;8.43;2.60;;;;;;;-0.92;81.35;102799.41;5054947;28;20032;-72
2021/03/05 07:49:41;;;;;;;12.45;2.47;;;;;;;-0.81;80.83;102804.38;5067748;28;20021;-72
2021/03/05 07:52:08;;;;;;;13.00;3.20;;;;;;;-0.72;81.37;102803.41;5063306;28;20039;-72
2021/03/05 07:54:39;;;;;;;8.57;2.08;;;;;;;-0.65;79.94;102805.88;5061196;28;20111;-72
2021/03/05 07:57:31;;;;;;;8.25;2.50;;;;;;;-0.58;80.13;102806.66;5061275;28;20052;-72
2021/03/05 07:59:59;;;;;;;11.20;2.67;;;;;;;-0.55;80.56;102814.31;5069120;28;20136;-72
2021/03/05 08:02:45;;;;;;;8.82;2.35;;;;;;;-0.56;79.04;102814.34;5070422;28;20593;-72
2021/03/05 08:05:29;;;;;;;6.70;2.38;;;;;;;-0.49;80.53;102823.69;5067383;28;20072;-72
2021/03/05 08:08:27;;;;;;;13.00;2.53;;;;;;;-0.41;79.84;102825.28;5041172;28;20577;-73
2021/03/05 08:10:54;;;;;;;9.57;2.10;;;;;;;-0.38;77.82;102833.81;5068826;28;20039;-72
2021/03/05 08:13:43;;;;;;;7.80;2.42;;;;;;;-0.38;78.37;102834.66;5067966;28;20052;-72
2021/03/05 08:16:37;;;;;;;9.05;2.28;;;;;;;-0.25;78.26;102835.34;5065402;28;20039;-72
2021/03/05 08:19:05;;;;;;;9.93;2.35;;;;;;;-0.16;78.07;102840.34;5068338;28;20044;-72
2021/03/05 08:21:50;;;;;;;7.20;2.00;;;;;;;-0.08;77.19;102845.38;5064450;28;20032;-72
2021/03/05 08:24:39;;;;;;;8.95;2.15;;;;;;;-0.04;77.08;102844.44;5046745;28;20470;-72
2021/03/05 08:27:19;;;;;;;8.18;2.58;;;;;;;-0.03;76.37;102849.56;5049604;28;20506;-72
2021/03/05 08:29:47;;;;;;;12.50;3.20;;;;;;;0.05;76.21;102859.75;5055845;28;20420;-72
2021/03/05 08:32:35;;;;;;;12.93;2.13;;;;;;;0.10;76.08;102863.13;5058534;28;20045;-71
2021/03/05 08:35:05;;;;;;;7.38;2.22;;;;;;;0.27;74.56;102867.13;5061481;28;20116;-71
2021/03/05 08:37:40;;;;;;;5.57;2.35;;;;;;;0.26;74.18;102862.84;5061411;28;20028;-71
2021/03/05 08:40:12;;;;;;;8.02;2.40;;;;;;;0.33;73.94;102864.44;5068170;28;20538;-71
2021/03/05 08:42:40;;;;;;;10.77;2.42;;;;;;;0.36;73.64;102869.56;5063601;28;20177;-71
2021/03/05 08:45:28;;;;;;;5.90;2.17;;;;;;;0.47;73.45;102872.78;5064308;28;20044;-71
2021/03/05 08:47:55;;;;;;;8.18;2.40;;;;;;;0.57;72.90;102876.88;5053039;28;20082;-72
2021/03/05 08:50:24;;;;;;;8.15;2.22;;;;;;;0.66;71.05;102877.56;5066962;28;20090;-73
2021/03/05 08:52:50;;;;;;;5.07;1.55;;;;;;;0.61;72.19;102876.84;5074918;28;20564;-73
2021/03/05 08:55:17;;;;;;;5.43;2.05;;;;;;;0.70;71.33;102879.25;5056217;28;20025;-73
2021/03/05 08:57:45;;;;;;;11.02;2.08;;;;;;;0.76;71.15;102884.28;5062757;28;20047;-72
2021/03/05 09:00:18;;;;;;;7.30;1.85;;;;;;;0.85;70.62;102881.50;5065548;28;20042;-72
2021/03/05 09:02:45;;;;;;;9.68;1.92;;;;;;;0.94;71.40;102880.44;5060094;28;20040;-72
2021/03/05 09:05:13;;;;;;;8.10;1.80;;;;;;;1.05;67.85;102877.66;5069101;28;20032;-72
2021/03/05 09:07:46;;;;;;;4.25;1.75;;;;;;;1.09;67.93;102881.88;5065570;28;20031;-72
2021/03/05 09:10:14;;;;;;;5.18;1.60;;;;;;;1.19;67.70;102885.09;5069382;28;20025;-72
2021/03/05 09:12:57;;;;;;;7.60;1.70;;;;;;;1.36;67.55;102888.19;5067558;28;20108;-72
2021/03/05 09:15:27;;;;;;;6.03;1.88;;;;;;;1.29;66.49;102895.22;5063748;28;20032;-73
2021/03/05 09:17:54;;;;;;;7.80;1.77;;;;;;;1.29;65.39;102891.78;5066004;28;20158;-72
2021/03/05 09:20:20;;;;;;;5.60;1.92;;;;;;;1.43;67.15;102892.34;5034865;28;20135;-72
2021/03/05 09:22:45;;;;;;;6.13;2.17;;;;;;;1.59;68.35;102894.56;5069760;28;20482;-73
2021/03/05 09:25:11;;;;;;;8.60;1.90;;;;;;;1.57;65.08;102902.38;5071563;28;20033;-72
2021/03/05 09:27:41;;;;;;;11.38;2.00;;;;;;;1.70;63.90;102908.94;5069424;28;20110;-73
2021/03/05 09:30:16;;;;;;;10.75;2.08;;;;;;;1.69;65.57;102907.22;5057132;28;20105;-73
2021/03/05 09:32:52;;;;;;;11.30;2.30;;;;;;;1.86;64.17;102893.06;5057806;28;20032;-73
2021/03/05 09:35:26;;;;;;;13.70;1.92;;;;;;;1.97;64.40;102895.38;5060018;28;20036;-73
2021/03/05 09:37:52;;;;;;;10.30;1.80;;;;;;;2.06;62.55;102898.59;5067388;28;20791;-73
2021/03/05 09:40:19;;;;;;;18.05;1.88;;;;;;;2.23;61.30;102905.94;5067917;28;20023;-73
2021/03/05 09:42:56;;;;;;;12.63;1.67;;;;;;;2.31;58.52;102913.50;5069192;28;20032;-73
2021/03/05 09:45:37;;;;;;;11.85;1.90;;;;;;;2.45;58.65;102915.72;5049508;28;20036;-72
2021/03/05 09:48:04;;;;;;;11.93;1.77;;;;;;;2.35;57.11;102917.72;5030831;28;20041;-73
2021/03/05 09:50:30;;;;;;;7.35;1.35;;;;;;;2.33;56.34;102922.91;5069145;28;20039;-73
2021/03/05 09:52:57;;;;;;;3.83;1.25;;;;;;;2.34;56.91;102914.28;5057619;28;20421;-73
2021/03/05 09:55:31;;;;;;;8.35;1.77;;;;;;;2.51;56.79;102923.34;5062833;28;20040;-73
2021/03/05 09:58:10;;;;;;;5.50;1.00;;;;;;;2.58;55.07;102927.47;5059841;28;20037;-73
2021/03/05 10:00:37;;;;;;;6.35;1.20;;;;;;;2.66;55.33;102920.34;5066942;28;20149;-73
2021/03/05 10:03:11;;;;;;;6.60;1.27;;;;;;;2.80;52.04;102919.94;5055836;28;20434;-74
2021/03/05 10:05:38;;;;;;;4.97;0.80;;;;;;;2.81;51.67;102924.25;5069621;28;20039;-73
2021/03/05 10:08:09;;;;;;;5.10;0.90;;;;;;;2.95;52.07;102920.44;5067295;28;20033;-73
2021/03/05 10:10:35;;;;;;;6.50;1.35;;;;;;;3.09;53.82;102928.66;5070997;28;20461;-74
2021/03/05 10:13:00;;;;;;;5.50;0.80;;;;;;;3.10;50.75;102928.59;5071604;28;20029;-74
2021/03/05 10:15:26;;;;;;;3.05;1.00;;;;;;;3.28;52.22;102932.41;5070643;28;20055;-73
2021/03/05 10:17:51;;;;;;;2.75;0.95;;;;;;;3.12;46.87;102931.16;5071163;28;20028;-73
2021/03/05 10:20:17;;;;;;;4.00;0.95;;;;;;;3.08;47.61;102932.97;5069799;28;20035;-74
2021/03/05 10:22:50;;;;;;;3.13;0.73;;;;;;;3.28;50.72;102944.53;5068827;28;20056;-73
2021/03/05 10:25:15;;;;;;;;;;;;;;;3.33;47.01;102952.19;5059330;28;20102;-73
2021/03/05 10:27:43;;;;;;;1.35;0.60;;;;;;;3.14;42.92;102952.69;5050675;28;20361;-73
2021/03/05 10:30:10;;;;;;;3.63;0.70;;;;;;;3.22;45.58;102955.06;5062184;28;20032;-73
2021/03/05 10:32:47;;;;;;;5.00;0.70;;;;;;;3.28;43.83;102953.16;5049088;28;20025;-73
2021/03/05 10:35:17;;;;;;;3.05;0.90;;;;;;;3.52;46.46;102955.91;5069637;28;20064;-73
2021/03/05 10:37:44;;;;;;;6.25;0.88;;;;;;;3.76;46.19;102956.06;5061849;28;20734;-73
2021/03/05 10:40:14;;;;;;;3.20;0.93;;;;;;;3.64;43.00;102949.53;5069518;28;20055;-73
2021/03/05 10:42:41;;;;;;;7.18;0.88;;;;;;;3.74;44.47;102961.28;5063067;28;20083;-73
2021/03/05 10:45:07;;;;;;;2.90;0.95;;;;;;;3.81;45.36;102960.22;5068636;28;20109;-73
2021/03/05 10:47:34;;;;;;;3.88;1.10;;;;;;;4.03;44.66;102965.59;5063819;28;20032;-74
2021/03/05 10:50:00;;;;;;;2.80;0.90;;;;;;;3.92;43.06;102961.59;5067042;28;20400;-74
2021/03/05 10:52:27;;;;;;;2.30;0.80;;;;;;;3.92;45.09;102972.00;5078393;28;20482;-74
2021/03/05 10:54:53;;;;;;;7.25;0.70;;;;;;;4.04;44.62;102966.44;5066004;28;20098;-73
2021/03/05 10:57:20;;;;;;;3.38;0.68;;;;;;;3.98;40.62;102966.63;5063463;28;20044;-74
2021/03/05 10:59:47;;;;;;;3.92;0.80;;;;;;;4.09;40.22;102974.94;5065422;28;20094;-73
2021/03/05 11:02:13;;;;;;;1.88;0.40;;;;;;;4.16;38.21;102970.38;5069013;28;20033;-73
2021/03/05 11:04:39;;;;;;;1.70;0.70;;;;;;;4.15;38.48;102974.72;5067559;28;20485;-73
2021/03/05 11:07:04;;;;;;;3.38;0.60;;;;;;;4.05;38.55;102975.91;5077823;28;20040;-74
2021/03/05 11:09:30;;;;;;;0.60;0.52;;;;;;;4.19;36.15;102978.91;5066667;28;20032;-74
2021/03/05 11:11:56;;;;;;;6.75;0.70;;;;;;;4.31;35.88;102975.06;5070240;28;20396;-73
2021/03/05 11:14:23;;;;;;;1.63;0.43;;;;;;;4.28;35.76;102976.00;5061732;28;20163;-73
2021/03/05 11:16:50;;;;;;;2.95;0.57;;;;;;;4.24;36.71;102968.38;5035724;28;20158;-73
2021/03/05 11:19:16;;;;;;;1.80;0.50;;;;;;;4.01;36.64;102969.97;5069611;28;20404;-73
2021/03/05 11:21:42;;;;;;;2.08;0.60;;;;;;;3.99;36.58;102973.50;5068815;28;20031;-73
2021/03/05 11:24:08;;;;;;;1.98;0.60;;;;;;;4.22;39.35;102977.94;5066068;28;20041;-72
2021/03/05 11:26:34;;;;;;;1.70;0.60;;;;;;;4.34;37.00;102974.13;5050359;28;20025;-72
2021/03/05 11:28:59;;;;;;;4.70;0.60;;;;;;;4.57;39.63;102979.38;5050090;28;20083;-73
2021/03/05 11:31:25;;;;;;;0.93;0.68;;;;;;;4.83;37.83;102972.41;5048042;28;20117;-73
2021/03/05 11:33:51;;;;;;;4.10;0.80;;;;;;;4.91;36.98;102970.38;5064654;28;20048;-72